Terminal Aerodrome Forecast
Issued by NWS Sterling, VA

Current Version | Previous Version | Graphics & Text | Print | Product List | Glossary On
Versions: 1 2 3 4 5 6 7 8 9 10 11 12 13 14 15 16 17 18 19 20 21 22 23 24 25 26 27 28 29
000
FTUS41 KLWX 261500 AAA
TAFIAD
TAF AMD
KIAD 261500Z 2615/2718 22006KT P6SM FEW120
     FM261800 20009KT P6SM SCT050 BKN090
     FM262200 20008KT P6SM VCTS SCT050CB BKN060
     FM270000 19006KT P6SM SCT050 BKN060
     FM271500 25004KT P6SM BKN070
     FM271700 17004KT P6SM BKN050=

USA.gov is the U.S. government's official web portal to all federal, state and local government web resources and services.